Current Weather

Ocean City Muni

Ocean City, Maryland (KOXB)

Report from: Monday, July 22, 2024 5:53 AM EDT
Current time: Monday, July 22, 2024 6:14 AM EDT

Nearby weather – Weather history – Daily summaries
Weather forecast

Temperature22.8°C (73.0°F)
Dew point21.1°C (70.0°F)
Winds Calm
Visibility10 mi. (16.1 km)
Clouds Sky clear
Altimeter30.07 in.Hg (1018 mB)
Relative humidity90 %
Density altitude1,078 ft. (329 m)
Sea-level pressure101.8 kPa (1018 mB, 30.07 in.Hg)
Remarks Fully automated report
Automated weather observing station with precipitation discriminator
Flight conditions Visual Meteorological Conditions
Raw dataKOXB 220953Z AUTO 00000KT 10SM CLR 23/21 A3007 RMK AO2 SLP182 T02280211
An error has occurred. This application may no longer respond until reloaded. Reload 🗙